Time;durP1;ratioP1;P1;durP2;ratioP2;P2;SDS_P1;SDS_P2;PMS_P1;PMS_P2;Temp;Humidity;BMP_temperature;BMP_pressure;BME280_temperature;BME280_humidity;BME280_pressure;Samples;Min_cycle;Max_cycle;Signal;HPM_P1;HPM_P2
2024/01/11 00:01:18;;;;;;;32.42;15.40;;;;;;;-0.07;51.33;101928.75;5088172;28;20108;-76
2024/01/11 00:03:43;;;;;;;26.40;14.10;;;;;;;-0.16;50.79;101924.50;5088387;28;20141;-76
2024/01/11 00:06:09;;;;;;;32.28;14.52;;;;;;;-0.15;51.07;101928.84;5088981;28;20403;-76
2024/01/11 00:08:34;;;;;;;34.20;14.98;;;;;;;-0.15;51.46;101938.56;5090342;28;20039;-74
2024/01/11 00:11:00;;;;;;;31.90;13.95;;;;;;;-0.12;51.65;101938.50;5091296;28;20038;-75
2024/01/11 00:13:25;;;;;;;25.35;12.25;;;;;;;-0.23;51.40;101922.84;5094794;28;20032;-76
2024/01/11 00:15:51;;;;;;;29.25;13.30;;;;;;;-0.23;51.22;101921.97;5095561;28;20110;-76
2024/01/11 00:18:17;;;;;;;24.50;13.15;;;;;;;-0.38;51.05;101891.38;5090596;28;20472;-74
2024/01/11 00:20:43;;;;;;;20.30;11.98;;;;;;;-0.12;51.27;101926.16;5090371;28;20088;-74
2024/01/11 00:23:08;;;;;;;24.08;13.52;;;;;;;-0.18;51.19;101930.69;5104978;28;20048;-74
2024/01/11 00:25:34;;;;;;;34.90;12.93;;;;;;;-0.08;50.78;101933.16;5089824;28;20488;-75
2024/01/11 00:28:02;;;;;;;22.00;12.98;;;;;;;-0.09;50.73;101930.53;5090318;28;20024;-76
2024/01/11 00:30:27;;;;;;;30.63;13.18;;;;;;;-0.32;51.13;101890.38;5090594;28;20102;-76
2024/01/11 00:32:53;;;;;;;28.02;12.45;;;;;;;-0.22;51.03;101903.44;5090379;28;20110;-73
2024/01/11 00:35:19;;;;;;;20.23;11.82;;;;;;;-0.19;50.87;101919.25;5090330;28;20055;-75
2024/01/11 00:37:45;;;;;;;23.58;12.85;;;;;;;-0.10;50.47;101926.16;5089998;28;20071;-76
2024/01/11 00:40:10;;;;;;;24.98;12.32;;;;;;;-0.16;50.38;101898.06;5089804;28;20024;-74
2024/01/11 00:42:36;;;;;;;35.20;12.55;;;;;;;-0.10;50.63;101913.81;5089985;28;20039;-76
2024/01/11 00:45:01;;;;;;;29.20;12.00;;;;;;;-0.12;50.59;101907.66;5089613;28;20092;-76
2024/01/11 00:47:27;;;;;;;24.10;12.10;;;;;;;-0.11;50.86;101904.13;5089927;28;20020;-76
2024/01/11 00:49:52;;;;;;;25.77;12.80;;;;;;;-0.13;50.62;101911.22;5090325;28;20077;-76
2024/01/11 00:52:18;;;;;;;23.25;11.52;;;;;;;-0.12;50.91;101907.66;5090235;28;20111;-73
2024/01/11 00:54:43;;;;;;;23.67;12.43;;;;;;;-0.11;50.62;101916.47;5088201;28;20036;-76
2024/01/11 00:57:09;;;;;;;21.63;10.10;;;;;;;-0.07;50.67;101900.53;5089934;28;20538;-75
2024/01/11 00:59:34;;;;;;;20.02;11.80;;;;;;;-0.02;50.29;101909.25;5089880;28;20027;-77
2024/01/11 01:02:00;;;;;;;21.35;11.38;;;;;;;-0.01;50.04;101897.78;5097448;28;20515;-74
2024/01/11 01:04:25;;;;;;;19.15;11.90;;;;;;;-0.12;49.80;101905.00;5097058;28;20051;-75
2024/01/11 01:06:51;;;;;;;20.23;11.38;;;;;;;-0.12;49.71;101915.59;5089600;28;20085;-75
2024/01/11 01:09:17;;;;;;;21.33;12.63;;;;;;;-0.22;49.98;101877.00;5088279;28;20032;-75
2024/01/11 01:11:42;;;;;;;21.50;12.07;;;;;;;-0.35;50.09;101849.03;5089414;28;20504;-74
2024/01/11 01:14:08;;;;;;;23.50;11.25;;;;;;;-0.30;49.43;101876.25;5087357;28;20044;-75
2024/01/11 01:16:33;;;;;;;17.35;10.98;;;;;;;-0.15;49.96;101877.75;5088939;28;20417;-75
2024/01/11 01:18:59;;;;;;;22.58;10.40;;;;;;;-0.38;49.33;101837.63;5089560;28;20499;-74
2024/01/11 01:21:24;;;;;;;23.00;11.35;;;;;;;-0.30;49.54;101836.59;5089172;28;20444;-76
2024/01/11 01:23:53;;;;;;;18.10;10.10;;;;;;;-0.35;49.61;101837.59;5089214;28;20110;-77
2024/01/11 01:26:19;;;;;;;21.02;10.45;;;;;;;-0.19;49.25;101863.72;5089309;28;20034;-74
2024/01/11 01:28:45;;;;;;;25.40;11.50;;;;;;;-0.14;49.38;101863.63;5088893;28;20028;-76
2024/01/11 01:31:11;;;;;;;18.42;10.38;;;;;;;-0.15;49.33;101846.91;5088780;28;20036;-75
2024/01/11 01:33:36;;;;;;;21.08;11.10;;;;;;;-0.01;48.81;101844.88;5089043;28;20028;-77
2024/01/11 01:36:02;;;;;;;15.32;9.23;;;;;;;-0.22;49.11;101803.00;5088689;28;20040;-73
2024/01/11 01:38:30;;;;;;;15.68;9.73;;;;;;;0.09;48.69;101844.72;5088877;28;20035;-75
2024/01/11 01:40:55;;;;;;;13.98;9.35;;;;;;;0.14;48.58;101842.84;5087847;28;20062;-74
2024/01/11 01:43:21;;;;;;;15.30;8.45;;;;;;;0.17;48.24;101837.50;5089371;28;20040;-73
2024/01/11 01:45:47;;;;;;;13.07;8.02;;;;;;;0.23;47.46;101842.66;5090044;28;20465;-76
2024/01/11 01:48:13;;;;;;;14.43;8.98;;;;;;;0.23;47.19;101838.25;5089132;28;20115;-74
2024/01/11 01:50:38;;;;;;;16.55;8.98;;;;;;;0.32;46.64;101827.50;5096467;28;20472;-75
2024/01/11 01:53:04;;;;;;;13.55;9.10;;;;;;;0.46;46.83;101830.72;5095686;28;20138;-75
2024/01/11 01:55:30;;;;;;;13.63;8.38;;;;;;;-0.04;46.67;101728.59;5089520;28;20131;-78
2024/01/11 01:57:57;;;;;;;12.20;8.15;;;;;;;0.41;45.99;101800.84;5089085;28;20039;-76
2024/01/11 02:00:23;;;;;;;16.20;8.75;;;;;;;0.58;45.89;101826.97;5087514;28;20373;-75
2024/01/11 02:02:52;;;;;;;17.33;8.05;;;;;;;0.53;45.71;101811.16;5088896;28;20038;-76
2024/01/11 02:05:18;;;;;;;10.27;7.65;;;;;;;0.59;45.24;101827.81;5088673;28;20360;-76
2024/01/11 02:07:44;;;;;;;12.10;7.45;;;;;;;0.54;44.87;101818.22;5103205;28;20035;-74
2024/01/11 02:10:10;;;;;;;15.82;7.72;;;;;;;0.63;44.76;101824.19;5088501;28;20106;-74
2024/01/11 02:12:39;;;;;;;12.05;7.70;;;;;;;0.62;44.41;101815.38;5086715;28;20025;-75
2024/01/11 02:15:05;;;;;;;10.25;7.60;;;;;;;0.41;43.98;101789.38;5088448;28;20593;-74
2024/01/11 02:17:31;;;;;;;11.32;7.80;;;;;;;0.58;44.61;101813.72;5088129;28;20024;-75
2024/01/11 02:19:57;;;;;;;16.10;8.02;;;;;;;0.39;44.22;101807.06;5086798;28;20115;-76
2024/01/11 02:22:28;;;;;;;12.98;7.30;;;;;;;0.46;44.18;101819.25;5087971;28;20539;-76
2024/01/11 02:24:54;;;;;;;14.68;7.78;;;;;;;0.46;44.02;101813.94;5088435;28;20110;-75
2024/01/11 02:27:19;;;;;;;16.63;8.30;;;;;;;0.35;44.48;101821.25;5087836;28;20138;-75
2024/01/11 02:29:45;;;;;;;11.77;7.15;;;;;;;-0.10;44.16;101744.59;5088330;28;20763;-76
2024/01/11 02:32:11;;;;;;;12.73;8.15;;;;;;;0.25;43.67;101804.69;5088305;28;20561;-74
2024/01/11 02:34:37;;;;;;;14.43;8.38;;;;;;;0.12;44.18;101786.47;5086060;28;20040;-75
2024/01/11 02:37:05;;;;;;;10.20;7.03;;;;;;;0.31;44.34;101808.97;5088153;28;20412;-77
2024/01/11 02:39:31;;;;;;;12.52;7.55;;;;;;;0.35;44.14;101806.25;5087867;28;20028;-74
2024/01/11 02:41:58;;;;;;;11.75;8.05;;;;;;;0.30;44.08;101817.84;5093147;28;20024;-75
2024/01/11 02:44:23;;;;;;;12.00;7.85;;;;;;;0.27;43.79;101804.69;5093582;28;20043;-74
2024/01/11 02:46:49;;;;;;;11.57;7.28;;;;;;;0.11;43.48;101806.75;5088034;28;20028;-75
2024/01/11 02:49:15;;;;;;;15.52;8.60;;;;;;;0.03;43.63;101808.69;5087443;28;20028;-73
2024/01/11 02:51:40;;;;;;;18.75;7.72;;;;;;;0.15;44.38;101807.56;5087386;28;20103;-75
2024/01/11 02:54:06;;;;;;;9.93;7.32;;;;;;;0.17;43.91;101821.63;5087521;28;20415;-76
2024/01/11 02:56:32;;;;;;;11.85;7.32;;;;;;;0.22;43.83;101819.75;5087135;28;20111;-73
2024/01/11 02:58:57;;;;;;;16.65;8.10;;;;;;;-0.01;44.06;101775.25;5087481;28;20028;-75
2024/01/11 03:01:23;;;;;;;13.25;9.00;;;;;;;0.11;43.85;101806.75;5087198;28;20028;-74
2024/01/11 03:03:48;;;;;;;14.80;9.25;;;;;;;-0.12;44.16;101767.53;5087413;28;20024;-75
2024/01/11 03:06:14;;;;;;;26.05;7.53;;;;;;;-0.08;43.68;101779.78;5087119;28;20967;-75
2024/01/11 03:08:39;;;;;;;11.90;7.85;;;;;;;0.03;43.98;101798.09;5087168;28;20047;-74
2024/01/11 03:11:06;;;;;;;11.45;7.00;;;;;;;-0.03;44.35;101790.25;5087601;28;20473;-75
2024/01/11 03:13:31;;;;;;;20.30;8.25;;;;;;;-0.12;44.50;101770.16;5087386;28;20103;-77
2024/01/11 03:15:57;;;;;;;16.52;8.07;;;;;;;-0.12;44.32;101767.53;5087578;28;20116;-77
2024/01/11 03:18:23;;;;;;;18.83;9.10;;;;;;;-0.12;44.72;101748.13;5084849;28;20036;-75
2024/01/11 03:20:48;;;;;;;18.50;8.80;;;;;;;0.19;44.43;101793.34;5086467;28;20127;-75
2024/01/11 03:23:14;;;;;;;14.57;8.73;;;;;;;0.22;44.91;101788.00;5088146;28;20467;-75
2024/01/11 03:25:39;;;;;;;16.30;8.93;;;;;;;0.15;44.87;101766.13;5088200;28;20020;-77
2024/01/11 03:28:05;;;;;;;12.85;8.60;;;;;;;0.32;45.13;101797.50;5088004;28;20055;-78
2024/01/11 03:30:30;;;;;;;43.90;9.25;;;;;;;0.41;45.28;101789.38;5099613;28;20032;-76
2024/01/11 03:32:56;;;;;;;23.05;8.80;;;;;;;0.43;45.04;101784.91;5076137;28;20055;-74
2024/01/11 03:35:21;;;;;;;20.13;9.93;;;;;;;0.32;45.34;101769.28;5087314;28;20143;-75
2024/01/11 03:37:47;;;;;;;20.42;10.07;;;;;;;0.40;45.32;101787.63;5087195;28;20753;-75
2024/01/11 03:40:14;;;;;;;21.05;11.25;;;;;;;0.23;45.40;101765.94;5087152;28;20039;-73
2024/01/11 03:42:39;;;;;;;24.77;10.57;;;;;;;-0.24;45.29;101693.75;5087178;28;20024;-75
2024/01/11 03:45:05;;;;;;;19.23;9.90;;;;;;;0.09;45.87;101753.03;5086997;28;20035;-75
2024/01/11 03:47:31;;;;;;;20.10;11.43;;;;;;;0.24;45.60;101776.50;5087074;28;20034;-78
2024/01/11 03:49:56;;;;;;;19.60;10.18;;;;;;;0.22;45.53;101773.00;5087295;28;20036;-76
2024/01/11 03:52:22;;;;;;;19.15;10.02;;;;;;;0.16;45.66;101766.97;5090972;28;20457;-76
2024/01/11 03:54:48;;;;;;;22.45;10.57;;;;;;;0.15;45.42;101771.41;5090624;28;20474;-74
2024/01/11 03:57:14;;;;;;;18.85;10.35;;;;;;;0.08;45.95;101753.03;5090872;28;20070;-77
2024/01/11 03:59:40;;;;;;;26.83;10.77;;;;;;;0.15;45.85;101770.53;5090916;28;20039;-76
2024/01/11 04:02:05;;;;;;;23.30;9.50;;;;;;;0.15;45.99;101752.03;5090908;28;20377;-75
2024/01/11 04:04:31;;;;;;;19.08;10.35;;;;;;;0.14;45.87;101750.28;5090844;28;20055;-77
2024/01/11 04:06:57;;;;;;;23.88;12.05;;;;;;;0.17;46.17;101758.13;5090459;28;20054;-76
2024/01/11 04:09:22;;;;;;;27.45;13.52;;;;;;;0.18;46.11;101759.91;5090960;28;20028;-74
2024/01/11 04:11:48;;;;;;;25.70;14.68;;;;;;;-0.03;46.02;101714.47;5089787;28;20028;-76
2024/01/11 04:14:13;;;;;;;28.98;14.13;;;;;;;0.22;46.39;101737.75;5091125;28;20085;-76
2024/01/11 04:16:45;;;;;;;32.33;17.95;;;;;;;0.08;46.18;101738.06;5090511;28;20077;-76
2024/01/11 04:19:10;;;;;;;24.38;12.32;;;;;;;-0.45;46.20;101712.66;5099007;28;20055;-75
2024/01/11 04:21:38;;;;;;;30.08;11.63;;;;;;;-0.32;46.80;101748.53;5096870;28;20055;-75
2024/01/11 04:24:06;;;;;;;19.52;10.32;;;;;;;-0.35;46.98;101748.59;5090368;28;20114;-78
2024/01/11 04:26:31;;;;;;;26.98;11.57;;;;;;;-0.50;47.48;101722.47;5090631;28;20040;-79
2024/01/11 04:28:59;;;;;;;17.13;9.90;;;;;;;-0.48;47.81;101746.19;5072223;28;20029;-77
2024/01/11 04:31:25;;;;;;;16.58;10.15;;;;;;;-0.65;47.83;101739.47;5070089;28;20101;-76
2024/01/11 04:33:51;;;;;;;23.38;11.95;;;;;;;-0.70;47.86;101743.06;5069827;28;20028;-78
2024/01/11 04:36:16;;;;;;;20.52;11.55;;;;;;;-0.62;48.39;101747.34;5084477;28;20051;-77
2024/01/11 04:38:42;;;;;;;22.90;11.93;;;;;;;-0.62;48.09;101741.19;5069845;28;20026;-77
2024/01/11 04:41:12;;;;;;;22.83;11.77;;;;;;;-0.74;48.35;101749.31;5070103;28;20028;-79
2024/01/11 04:43:42;;;;;;;18.55;11.00;;;;;;;-0.85;48.78;101730.13;5069869;28;20032;-77
2024/01/11 04:46:14;;;;;;;17.25;9.82;;;;;;;-0.79;49.03;101746.75;5081150;28;20019;-76
2024/01/11 04:48:39;;;;;;;18.65;10.82;;;;;;;-0.87;48.70;101747.78;5089313;28;20115;-76
2024/01/11 04:51:05;;;;;;;19.70;10.80;;;;;;;-0.87;48.53;101748.66;5089608;28;20107;-76
2024/01/11 04:53:30;;;;;;;18.13;11.02;;;;;;;-0.88;49.48;101746.03;5090057;28;20029;-76
2024/01/11 04:55:56;;;;;;;23.88;11.27;;;;;;;-1.03;49.64;101738.34;5089854;28;20551;-76
2024/01/11 04:58:21;;;;;;;26.27;11.35;;;;;;;-1.00;49.65;101730.38;5089934;28;20032;-77
2024/01/11 05:00:47;;;;;;;25.27;10.35;;;;;;;-1.19;49.67;101693.72;5090027;28;20027;-75
2024/01/11 05:03:12;;;;;;;25.17;10.65;;;;;;;-0.95;49.79;101745.28;5090924;28;20059;-75
2024/01/11 05:05:38;;;;;;;19.63;10.30;;;;;;;-1.19;50.03;101712.19;5089997;28;20254;-76
2024/01/11 05:08:04;;;;;;;17.38;9.70;;;;;;;-0.91;49.90;101735.50;5093767;28;20027;-75
2024/01/11 05:10:29;;;;;;;22.52;11.00;;;;;;;-1.12;49.83;101727.06;5096595;28;20380;-77
2024/01/11 05:12:55;;;;;;;24.52;11.23;;;;;;;-1.00;50.11;101725.97;5092937;28;20602;-78
2024/01/11 05:15:20;;;;;;;27.70;11.10;;;;;;;-0.88;49.43;101743.38;5088979;28;20724;-74
2024/01/11 05:17:46;;;;;;;64.30;13.93;;;;;;;-0.91;49.47;101719.66;5089528;28;20404;-76
2024/01/11 05:20:11;;;;;;;22.85;10.82;;;;;;;-0.96;49.09;101711.84;5088521;28;20068;-79
2024/01/11 05:22:37;;;;;;;17.05;10.57;;;;;;;-0.84;49.54;101732.75;5089894;28;20122;-77
2024/01/11 05:25:03;;;;;;;20.90;10.10;;;;;;;-0.84;49.33;101721.31;5089760;28;20052;-79
2024/01/11 05:27:28;;;;;;;22.45;9.98;;;;;;;-0.69;49.29;101727.19;5089661;28;20043;-79
2024/01/11 05:29:54;;;;;;;26.80;10.63;;;;;;;-0.68;49.22;101723.69;5088966;28;20028;-77
2024/01/11 05:32:19;;;;;;;22.70;10.40;;;;;;;-0.81;49.20;101722.13;5089332;28;20522;-76
2024/01/11 05:34:45;;;;;;;24.90;9.75;;;;;;;-0.73;49.30;101720.22;5089311;28;20044;-75
2024/01/11 05:37:10;;;;;;;19.10;9.43;;;;;;;-0.87;49.52;101674.72;5089393;28;20055;-76
2024/01/11 05:39:36;;;;;;;31.45;11.25;;;;;;;-0.57;49.50;101712.91;5089301;28;20523;-74
2024/01/11 05:42:01;;;;;;;24.33;11.27;;;;;;;-0.55;48.78;101703.16;5089350;28;20055;-77
2024/01/11 05:44:27;;;;;;;26.75;10.68;;;;;;;-0.43;49.42;101713.53;5088722;28;20024;-80
2024/01/11 05:46:52;;;;;;;31.92;10.90;;;;;;;-0.41;48.94;101692.34;5089615;28;20020;-78
2024/01/11 05:49:18;;;;;;;37.35;11.93;;;;;;;-0.39;48.97;101694.06;5090460;28;20513;-78
2024/01/11 05:51:43;;;;;;;34.40;12.60;;;;;;;-0.74;48.49;101635.75;5092042;28;20027;-78
2024/01/11 05:54:09;;;;;;;25.95;11.13;;;;;;;-0.39;48.14;101699.34;5091415;28;20169;-75
2024/01/11 05:56:34;;;;;;;26.27;13.02;;;;;;;-0.49;48.52;101671.38;5091916;28;20451;-76
2024/01/11 05:59:00;;;;;;;15.75;10.27;;;;;;;-0.42;48.23;101682.66;5092045;28;20035;-80
2024/01/11 06:01:25;;;;;;;42.40;11.75;;;;;;;-0.31;47.98;101697.44;5091450;28;20024;-77
2024/01/11 06:03:51;;;;;;;24.48;11.07;;;;;;;-0.50;48.50;101664.34;5086177;28;20046;-77
2024/01/11 06:06:16;;;;;;;23.23;11.63;;;;;;;-0.40;47.62;101684.41;5088929;28;20052;-75
2024/01/11 06:08:43;;;;;;;40.20;12.32;;;;;;;-0.25;47.53;101694.66;5086166;28;20449;-73
2024/01/11 06:11:09;;;;;;;17.88;10.98;;;;;;;-0.32;47.51;101671.03;5086667;28;20028;-75
2024/01/11 06:13:35;;;;;;;23.13;12.05;;;;;;;-0.29;47.70;101687.69;5087519;28;20107;-75
2024/01/11 06:16:01;;;;;;;39.20;13.13;;;;;;;-0.26;47.25;101692.03;5086636;28;20032;-75
2024/01/11 06:18:26;;;;;;;47.72;14.60;;;;;;;-0.39;47.52;101666.75;5085070;28;20477;-76
2024/01/11 06:20:52;;;;;;;25.95;12.93;;;;;;;-0.34;46.95;101671.06;5088032;28;20077;-77
2024/01/11 06:23:19;;;;;;;34.92;14.73;;;;;;;-0.49;47.06;101650.22;5088148;28;20492;-73
2024/01/11 06:25:46;;;;;;;39.15;14.07;;;;;;;-0.18;47.20;101687.47;5087955;28;20468;-77
2024/01/11 06:28:12;;;;;;;35.05;17.05;;;;;;;-0.31;46.55;101665.72;5087791;28;20035;-74
2024/01/11 06:30:37;;;;;;;51.28;17.48;;;;;;;-0.23;47.06;101666.41;5087993;28;20429;-76
2024/01/11 06:33:03;;;;;;;42.67;16.73;;;;;;;-0.07;46.92;101691.66;5102281;28;20419;-75
2024/01/11 06:35:28;;;;;;;40.22;17.98;;;;;;;-0.11;46.77;101663.53;5088141;28;20051;-75
2024/01/11 06:37:54;;;;;;;42.28;18.20;;;;;;;0.03;46.94;101680.88;5088504;28;20071;-74
2024/01/11 06:40:19;;;;;;;33.05;16.73;;;;;;;-0.01;46.65;101680.94;5089145;28;20116;-75
2024/01/11 06:42:45;;;;;;;40.30;16.00;;;;;;;-0.15;46.76;101669.75;5088024;28;20835;-75
2024/01/11 06:45:10;;;;;;;48.58;18.10;;;;;;;-0.23;46.79;101655.84;5091590;28;20428;-74
2024/01/11 06:47:36;;;;;;;48.60;19.80;;;;;;;-0.08;46.97;101679.31;5098262;28;20093;-76
2024/01/11 06:50:03;;;;;;;55.17;19.02;;;;;;;-0.07;46.99;101696.94;5090951;28;20031;-76
2024/01/11 06:52:28;;;;;;;53.83;19.67;;;;;;;-0.10;46.80;101681.13;5088301;28;20028;-75
2024/01/11 06:54:54;;;;;;;59.60;20.63;;;;;;;-0.16;46.57;101681.25;5087830;28;20028;-76
2024/01/11 06:57:19;;;;;;;66.53;24.35;;;;;;;-0.14;46.98;101679.44;5087555;28;20051;-77
2024/01/11 06:59:46;;;;;;;70.53;24.65;;;;;;;-0.06;46.99;101674.84;5086806;28;20055;-75
2024/01/11 07:02:12;;;;;;;73.15;25.92;;;;;;;0.06;47.32;101675.53;5087482;28;20081;-78
2024/01/11 07:04:38;;;;;;;67.20;26.90;;;;;;;0.20;46.84;101673.44;5085004;28;20067;-75
2024/01/11 07:07:04;;;;;;;49.80;23.20;;;;;;;0.26;47.10;101678.59;5086400;28;20063;-75
2024/01/11 07:09:30;;;;;;;66.13;24.02;;;;;;;0.19;46.92;101671.69;5087146;28;20028;-79
2024/01/11 07:11:58;;;;;;;57.42;21.80;;;;;;;0.30;46.97;101680.25;5088294;28;20035;-77
2024/01/11 07:14:24;;;;;;;59.78;20.80;;;;;;;0.38;46.84;101687.13;5084908;28;20117;-77
2024/01/11 07:16:49;;;;;;;48.47;21.48;;;;;;;0.13;46.51;101624.22;5084522;28;20040;-77
2024/01/11 07:19:15;;;;;;;53.33;24.95;;;;;;;0.43;46.55;101682.56;5084997;28;20127;-77
2024/01/11 07:21:40;;;;;;;62.15;22.60;;;;;;;0.44;46.70;101654.34;5085204;28;20562;-76
2024/01/11 07:24:06;;;;;;;62.05;25.20;;;;;;;0.62;46.63;101667.16;5085077;28;20040;-76
2024/01/11 07:26:31;;;;;;;47.22;22.48;;;;;;;0.65;46.24;101667.06;5088075;28;20438;-77
2024/01/11 07:28:57;;;;;;;62.38;23.65;;;;;;;0.65;46.63;101672.38;5091000;28;20066;-80
2024/01/11 07:31:23;;;;;;;42.78;19.95;;;;;;;0.54;46.52;101664.69;5090122;28;20031;-76
2024/01/11 07:33:48;;;;;;;42.65;20.98;;;;;;;0.41;46.64;101625.31;5093254;28;20044;-77
2024/01/11 07:36:14;;;;;;;43.15;19.23;;;;;;;0.67;46.56;101669.69;5097584;28;20111;-77
2024/01/11 07:38:40;;;;;;;54.95;18.98;;;;;;;0.64;46.16;101657.41;5090589;28;20491;-76
2024/01/11 07:41:06;;;;;;;41.10;17.55;;;;;;;0.69;46.38;101663.44;5088469;28;20115;-76
2024/01/11 07:43:34;;;;;;;38.30;18.60;;;;;;;0.63;45.73;101660.06;5088497;28;20024;-75
2024/01/11 07:46:05;;;;;;;42.72;18.52;;;;;;;0.70;46.49;101654.63;5066858;28;20044;-75
2024/01/11 07:48:31;;;;;;;48.45;20.73;;;;;;;0.69;46.29;101652.88;5090972;28;20055;-75
2024/01/11 07:50:57;;;;;;;59.38;22.17;;;;;;;0.74;46.60;101648.31;5090736;28;20698;-76
2024/01/11 07:53:23;;;;;;;50.35;21.48;;;;;;;0.88;46.58;101654.16;5071655;28;20122;-79
2024/01/11 07:55:49;;;;;;;78.10;22.73;;;;;;;0.93;46.89;101644.31;5090583;28;20559;-77
2024/01/11 07:58:15;;;;;;;44.25;21.13;;;;;;;1.08;46.70;101646.56;5090579;28;20092;-77
2024/01/11 08:00:40;;;;;;;59.72;19.35;;;;;;;1.06;46.09;101637.78;5090339;28;20028;-77
2024/01/11 08:03:06;;;;;;;53.05;18.95;;;;;;;1.15;46.17;101619.91;5090849;28;20034;-78
2024/01/11 08:05:31;;;;;;;61.92;20.25;;;;;;;1.37;45.85;101636.97;5090903;28;20162;-76
2024/01/11 08:08:01;;;;;;;50.20;19.92;;;;;;;1.26;45.87;101617.81;5090792;28;20694;-79
2024/01/11 08:10:27;;;;;;;41.65;17.38;;;;;;;1.43;45.86;101618.22;5087797;28;20048;-78
2024/01/11 08:12:52;;;;;;;53.47;18.95;;;;;;;1.68;45.87;101626.38;5090517;28;20021;-77
2024/01/11 08:15:18;;;;;;;43.30;18.65;;;;;;;1.82;45.33;101625.03;5090603;28;20124;-78
2024/01/11 08:17:45;;;;;;;44.95;17.55;;;;;;;1.88;45.21;101622.22;5091940;28;20058;-77
2024/01/11 08:20:11;;;;;;;42.83;18.40;;;;;;;1.97;44.80;101623.72;5092003;28;20440;-75
2024/01/11 08:22:39;;;;;;;48.22;17.95;;;;;;;2.07;44.77;101617.22;5104384;28;20113;-78
2024/01/11 08:25:05;;;;;;;64.20;19.55;;;;;;;2.08;45.05;101608.34;5110495;28;20020;-79
2024/01/11 08:27:34;;;;;;;71.68;18.35;;;;;;;2.23;45.24;101609.66;5093019;28;20034;-79
2024/01/11 08:30:04;;;;;;;49.90;17.48;;;;;;;2.38;45.16;101603.84;5090834;28;20040;-77
2024/01/11 08:32:30;;;;;;;47.08;15.52;;;;;;;2.49;44.72;101601.72;5090516;28;20028;-77
2024/01/11 08:34:57;;;;;;;51.35;15.85;;;;;;;2.55;44.10;101596.19;5070537;28;20070;-78
2024/01/11 08:37:23;;;;;;;43.10;16.20;;;;;;;2.70;44.16;101601.00;5088970;28;20032;-77
2024/01/11 08:39:49;;;;;;;42.22;14.60;;;;;;;2.57;43.56;101567.78;5090179;28;20035;-76
2024/01/11 08:42:17;;;;;;;58.92;16.98;;;;;;;2.82;43.44;101584.66;5089581;28;20024;-77
2024/01/11 08:44:43;;;;;;;47.85;17.73;;;;;;;2.76;43.30;101587.50;5089633;28;20546;-77
2024/01/11 08:47:09;;;;;;;45.42;19.00;;;;;;;2.71;43.60;101582.38;5089773;28;20058;-76
2024/01/11 08:49:39;;;;;;;43.42;18.00;;;;;;;2.85;43.70;101573.03;5089700;28;20063;-77
2024/01/11 08:52:05;;;;;;;41.10;18.60;;;;;;;2.89;43.48;101556.97;5089239;28;20463;-76
2024/01/11 08:54:32;;;;;;;51.13;19.42;;;;;;;2.88;43.07;101565.84;5089589;28;20036;-80
2024/01/11 08:56:58;;;;;;;52.70;20.00;;;;;;;2.87;43.17;101561.47;5089669;28;20492;-76
2024/01/11 08:59:25;;;;;;;37.60;19.08;;;;;;;2.79;43.20;101526.31;5090261;28;20024;-75
2024/01/11 09:01:51;;;;;;;48.00;19.48;;;;;;;3.02;43.53;101555.59;5087699;28;20071;-77
2024/01/11 09:04:17;;;;;;;59.72;19.85;;;;;;;3.10;43.76;101536.72;5090467;28;20032;-76
2024/01/11 09:06:43;;;;;;;42.72;20.02;;;;;;;3.28;43.50;101544.88;5092374;28;20649;-78
2024/01/11 09:09:10;;;;;;;38.15;19.02;;;;;;;3.39;43.52;101533.88;5088732;28;20066;-74
2024/01/11 09:11:36;;;;;;;46.30;18.15;;;;;;;3.39;42.96;101515.25;5094794;28;20040;-78
2024/01/11 09:14:04;;;;;;;47.60;17.75;;;;;;;3.55;42.61;101518.19;5094874;28;20023;-76
2024/01/11 09:16:30;;;;;;;38.22;18.25;;;;;;;3.55;42.00;101518.19;5089523;28;20036;-76
2024/01/11 09:18:56;;;;;;;57.17;19.23;;;;;;;3.69;42.36;101516.75;5089441;28;20035;-76
2024/01/11 09:21:22;;;;;;;45.50;18.88;;;;;;;3.62;42.03;101487.78;5089176;28;20043;-77
2024/01/11 09:23:47;;;;;;;48.75;25.08;;;;;;;3.88;42.13;101494.75;5089669;28;20483;-76
2024/01/11 09:26:13;;;;;;;47.85;21.42;;;;;;;3.81;41.88;101467.50;5089230;28;20028;-77
2024/01/11 09:28:38;;;;;;;44.42;17.60;;;;;;;3.87;41.43;101483.22;5089163;28;20650;-78
2024/01/11 09:31:04;;;;;;;32.83;17.63;;;;;;;3.87;41.65;101477.91;5089731;28;20028;-78
2024/01/11 09:33:30;;;;;;;55.75;16.92;;;;;;;3.96;41.43;101466.88;5089274;28;20020;-77
2024/01/11 09:35:58;;;;;;;51.35;16.60;;;;;;;4.11;41.27;101482.22;5088840;28;20096;-78
2024/01/11 09:38:23;;;;;;;38.80;15.70;;;;;;;4.05;41.04;101471.81;5088678;28;20028;-77
2024/01/11 09:41:09;;;;;;;38.38;16.77;;;;;;;3.98;41.24;101459.69;5088896;28;20115;-77
2024/01/11 09:43:35;;;;;;;34.80;17.08;;;;;;;3.94;41.28;101462.56;5088826;28;20541;-75
2024/01/11 09:46:05;;;;;;;42.13;16.33;;;;;;;3.93;41.20;101448.38;5086411;28;20036;-76
2024/01/11 09:48:35;;;;;;;38.60;14.82;;;;;;;3.87;40.75;101450.41;5088743;28;20181;-77
2024/01/11 09:51:03;;;;;;;30.48;16.23;;;;;;;3.69;41.28;101452.03;5089338;28;20424;-78
2024/01/11 09:53:31;;;;;;;29.60;15.20;;;;;;;3.70;41.72;101438.66;5089795;28;20400;-77
2024/01/11 09:55:58;;;;;;;46.75;16.27;;;;;;;3.71;42.16;101434.22;5088941;28;20051;-74
2024/01/11 09:58:25;;;;;;;30.88;17.25;;;;;;;3.75;42.18;101425.19;5087093;28;20040;-76
2024/01/11 10:00:54;;;;;;;54.25;20.95;;;;;;;3.87;42.19;101422.03;5099126;28;20032;-77
2024/01/11 10:03:22;;;;;;;37.92;19.42;;;;;;;3.92;41.98;101428.00;5095371;28;20480;-77
2024/01/11 10:05:50;;;;;;;79.07;18.35;;;;;;;3.90;41.67;101418.38;5088467;28;20039;-75
2024/01/11 10:08:21;;;;;;;31.02;16.38;;;;;;;3.94;42.21;101412.88;5087957;28;20407;-78
2024/01/11 10:10:46;;;;;;;53.28;20.00;;;;;;;4.00;42.60;101369.16;5088426;28;20040;-76
2024/01/11 10:13:12;;;;;;;47.63;17.85;;;;;;;4.38;42.68;101395.84;5088489;28;20105;-77
2024/01/11 10:15:37;;;;;;;27.80;15.15;;;;;;;4.58;42.11;101386.13;5088157;28;20031;-74
2024/01/11 10:18:03;;;;;;;34.20;15.25;;;;;;;4.75;41.63;101379.09;5087937;28;20106;-76
2024/01/11 10:20:31;;;;;;;29.30;15.10;;;;;;;4.89;40.90;101378.47;5087978;28;20032;-75
2024/01/11 10:22:56;;;;;;;64.70;17.08;;;;;;;5.09;40.87;101377.53;5088424;28;20028;-77
2024/01/11 10:25:23;;;;;;;37.35;16.98;;;;;;;5.13;40.96;101353.34;5087912;28;20540;-76
2024/01/11 10:27:48;;;;;;;44.67;19.30;;;;;;;5.32;40.89;101364.84;5087959;28;20465;-76
2024/01/11 10:30:26;;;;;;;31.33;17.88;;;;;;;5.40;40.53;101362.69;5086488;28;20115;-77
2024/01/11 10:32:51;;;;;;;39.42;17.40;;;;;;;5.50;40.57;101350.59;5088263;28;20075;-76
2024/01/11 10:35:18;;;;;;;42.58;16.40;;;;;;;5.45;40.19;101344.63;5087351;28;20507;-77
2024/01/11 10:37:44;;;;;;;37.95;17.55;;;;;;;5.27;40.14;101297.53;5088673;28;20016;-76
2024/01/11 10:40:13;;;;;;;34.42;16.45;;;;;;;5.61;39.88;101327.88;5084804;28;20063;-75
2024/01/11 10:42:43;;;;;;;32.22;17.70;;;;;;;5.67;40.20;101324.91;5088558;28;20564;-75
2024/01/11 10:45:20;;;;;;;40.72;16.48;;;;;;;5.65;39.97;101324.13;5084653;28;20392;-76
2024/01/11 10:48:01;;;;;;;40.58;20.40;;;;;;;5.65;40.06;101306.31;5090904;28;20025;-75
2024/01/11 10:50:30;;;;;;;36.40;16.98;;;;;;;5.70;40.44;101316.75;5076056;28;20051;-76
2024/01/11 10:53:33;;;;;;;44.15;18.95;;;;;;;5.83;40.15;101307.19;5088193;28;20040;-76
2024/01/11 10:55:59;;;;;;;34.10;17.23;;;;;;;5.95;40.13;101295.91;5088336;28;20044;-76
2024/01/11 10:58:26;;;;;;;31.95;17.20;;;;;;;5.86;39.83;101289.25;5088035;28;20039;-74
2024/01/11 11:00:56;;;;;;;39.90;17.25;;;;;;;5.86;40.08;101280.38;5087710;28;20035;-75
2024/01/11 11:03:25;;;;;;;36.28;16.83;;;;;;;5.98;40.22;101279.72;5088086;28;20026;-77
2024/01/11 11:05:57;;;;;;;41.50;17.92;;;;;;;5.97;39.86;101267.31;5088192;28;20432;-77
2024/01/11 11:08:24;;;;;;;37.67;16.83;;;;;;;6.15;40.30;101266.34;5088076;28;20495;-78
2024/01/11 11:10:56;;;;;;;44.35;17.90;;;;;;;6.24;39.97;101265.84;5068666;28;20051;-76